createdAt,value
2023-08-17T00:06:31.873Z,19.78
2023-08-17T00:13:51.477Z,19.73
2023-08-17T00:21:09.775Z,19.89
2023-08-17T00:28:27.938Z,19.92
2023-08-17T00:35:47.755Z,20.14
2023-08-17T00:43:07.277Z,20.21
2023-08-17T00:50:25.807Z,20.52
2023-08-17T00:57:46.079Z,19.69
2023-08-17T01:05:04.652Z,20.13
2023-08-17T01:12:28.219Z,19.50
2023-08-17T01:19:52.400Z,18.94
2023-08-17T01:27:12.144Z,18.91
2023-08-17T01:34:32.071Z,18.74
2023-08-17T01:41:50.596Z,18.67
2023-08-17T01:49:10.210Z,18.63
2023-08-17T01:56:29.740Z,18.63
2023-08-17T02:03:47.902Z,18.58
2023-08-17T02:11:07.497Z,18.43
2023-08-17T02:18:26.177Z,18.20
2023-08-17T02:25:44.747Z,18.18
2023-08-17T02:33:04.734Z,18.41
2023-08-17T02:40:23.030Z,18.19
2023-08-17T02:47:41.369Z,18.30
2023-08-17T02:55:00.994Z,18.45
2023-08-17T03:02:19.103Z,18.55
2023-08-17T03:09:37.286Z,18.43
2023-08-17T03:16:57.405Z,18.36
2023-08-17T03:24:15.982Z,18.61
2023-08-17T03:31:34.401Z,18.75
2023-08-17T03:38:55.236Z,18.64
2023-08-17T03:46:13.535Z,18.84
2023-08-17T03:53:31.742Z,19.03
2023-08-17T04:00:55.600Z,19.01
2023-08-17T04:08:20.291Z,19.18
2023-08-17T04:15:38.469Z,19.40
2023-08-17T04:22:59.364Z,19.55
2023-08-17T04:30:18.311Z,19.64
2023-08-17T04:37:44.897Z,19.74
2023-08-17T04:45:05.296Z,19.84
2023-08-17T04:52:24.407Z,19.80
2023-08-17T04:59:43.077Z,19.73
2023-08-17T05:07:03.471Z,19.74
2023-08-17T05:14:22.398Z,19.81
2023-08-17T05:21:40.827Z,19.90
2023-08-17T05:29:04.228Z,20.01
2023-08-17T05:36:22.647Z,20.34
2023-08-17T05:43:40.889Z,21.95
2023-08-17T05:51:00.601Z,22.90
2023-08-17T05:58:18.742Z,22.56
2023-08-17T06:05:36.818Z,21.92
2023-08-17T06:12:56.974Z,21.50
2023-08-17T06:20:15.719Z,21.45
2023-08-17T06:27:34.856Z,21.48
2023-08-17T06:34:55.455Z,21.39
2023-08-17T06:42:13.904Z,21.43
2023-08-17T06:49:32.866Z,21.39
2023-08-17T06:56:52.875Z,21.38
2023-08-17T07:04:11.067Z,21.68
2023-08-17T07:11:29.526Z,21.98
2023-08-17T07:18:49.776Z,22.53
2023-08-17T07:26:08.298Z,23.01
2023-08-17T07:33:26.677Z,23.26
2023-08-17T07:40:46.417Z,23.32
2023-08-17T07:48:05.489Z,23.36
2023-08-17T07:55:24.595Z,23.94
2023-08-17T08:02:44.425Z,24.77
2023-08-17T08:10:02.932Z,24.96
2023-08-17T08:17:21.414Z,25.04
2023-08-17T08:24:43.346Z,25.59
2023-08-17T08:32:04.557Z,26.42
2023-08-17T08:39:22.911Z,27.24
2023-08-17T08:46:43.406Z,27.72
2023-08-17T08:54:05.379Z,28.76
2023-08-17T09:01:23.655Z,27.39
2023-08-17T09:08:44.256Z,27.69
2023-08-17T09:16:07.412Z,27.54
2023-08-17T09:23:26.074Z,27.02
2023-08-17T09:30:59.624Z,28.94
2023-08-17T09:38:17.846Z,29.25
2023-08-17T09:45:37.879Z,29.93
2023-08-17T09:52:57.765Z,30.22
2023-08-17T10:00:16.821Z,30.73
2023-08-17T10:07:36.501Z,30.72
2023-08-17T10:14:58.280Z,30.95
2023-08-17T10:22:19.859Z,31.44
2023-08-17T10:29:38.886Z,31.31
2023-08-17T10:36:59.218Z,31.18
2023-08-17T10:44:18.391Z,31.32
2023-08-17T10:51:37.073Z,31.16
2023-08-17T10:58:56.944Z,31.79
2023-08-17T11:06:19.932Z,31.27
2023-08-17T11:13:39.583Z,31.27
2023-08-17T11:20:59.259Z,31.26
2023-08-17T11:28:17.814Z,31.07
2023-08-17T11:35:36.039Z,30.81
2023-08-17T11:42:55.780Z,30.84
2023-08-17T11:50:20.479Z,30.85
2023-08-17T11:57:39.785Z,30.84
2023-08-17T12:04:59.482Z,30.92
2023-08-17T12:12:20.281Z,30.90
2023-08-17T12:19:39.181Z,30.85
2023-08-17T12:27:00.849Z,30.56
2023-08-17T12:34:19.129Z,30.40
2023-08-17T12:41:37.328Z,30.31
2023-08-17T12:48:57.045Z,30.81
2023-08-17T12:56:15.234Z,30.94
2023-08-17T13:03:33.388Z,31.15
2023-08-17T13:10:52.905Z,30.91
2023-08-17T13:18:11.356Z,30.70
2023-08-17T13:25:29.581Z,30.72
2023-08-17T13:32:49.543Z,30.48
2023-08-17T13:40:08.836Z,30.68
2023-08-17T13:47:27.193Z,30.61
2023-08-17T13:54:47.539Z,30.61
2023-08-17T14:02:05.999Z,30.11
2023-08-17T14:09:25.036Z,30.26
2023-08-17T14:16:44.819Z,30.13
2023-08-17T14:24:03.255Z,30.23
2023-08-17T14:31:21.594Z,30.08
2023-08-17T14:38:41.125Z,30.03
2023-08-17T14:45:59.735Z,29.92
2023-08-17T14:53:18.024Z,30.06
2023-08-17T15:00:37.718Z,29.89
2023-08-17T15:07:55.942Z,25.98
2023-08-17T15:15:14.238Z,25.12
2023-08-17T15:22:33.896Z,22.77
2023-08-17T15:29:52.087Z,20.89
2023-08-17T15:37:10.642Z,20.24
2023-08-17T15:44:31.275Z,20.23
2023-08-17T15:51:49.753Z,20.29
2023-08-17T15:59:07.997Z,20.37
2023-08-17T16:06:27.550Z,20.62
2023-08-17T16:13:47.165Z,20.89
2023-08-17T16:21:06.401Z,21.09
2023-08-17T16:28:26.644Z,21.21
2023-08-17T16:35:45.186Z,21.36
2023-08-17T16:43:03.549Z,21.50
2023-08-17T16:50:23.291Z,21.74
2023-08-17T16:57:41.438Z,22.04
2023-08-17T17:04:59.656Z,22.09
2023-08-17T17:12:19.263Z,22.22
2023-08-17T17:19:37.522Z,22.22
2023-08-17T17:26:55.692Z,22.46
2023-08-17T17:34:15.430Z,22.22
2023-08-17T17:41:33.670Z,21.94
2023-08-17T17:48:52.055Z,22.06
2023-08-17T17:56:13.976Z,21.94
2023-08-17T18:03:32.477Z,21.84
2023-08-17T18:10:51.173Z,21.75
2023-08-17T18:18:11.357Z,21.63
2023-08-17T18:25:31.023Z,21.38
2023-08-17T18:32:49.477Z,21.14
2023-08-17T18:40:10.971Z,21.03
2023-08-17T18:47:29.952Z,20.91
2023-08-17T18:55:01.719Z,20.87
2023-08-17T19:02:23.205Z,20.96
2023-08-17T19:09:41.660Z,20.87
2023-08-17T19:17:00.377Z,20.79
2023-08-17T19:24:20.289Z,20.93
2023-08-17T19:31:38.747Z,20.98
2023-08-17T19:38:57.054Z,21.24
2023-08-17T19:46:16.963Z,21.35
2023-08-17T19:53:35.092Z,21.13
2023-08-17T20:00:53.416Z,21.07
2023-08-17T20:08:13.460Z,21.25
2023-08-17T20:15:31.855Z,21.35
2023-08-17T20:22:50.091Z,21.41
2023-08-17T20:30:10.927Z,21.00
2023-08-17T20:37:29.282Z,20.83
2023-08-17T20:44:48.293Z,20.67
2023-08-17T20:52:08.979Z,20.51
2023-08-17T20:59:27.336Z,20.55
2023-08-17T21:06:45.529Z,20.43
2023-08-17T21:14:05.506Z,20.37
2023-08-17T21:21:23.780Z,20.47
2023-08-17T21:28:41.922Z,20.32
2023-08-17T21:36:01.926Z,20.60
2023-08-17T21:43:20.137Z,20.62
2023-08-17T21:50:39.279Z,20.81
2023-08-17T21:57:59.367Z,20.55
2023-08-17T22:05:17.935Z,20.40
2023-08-17T22:12:36.087Z,20.30
2023-08-17T22:19:55.594Z,20.23
2023-08-17T22:27:13.789Z,20.33
2023-08-17T22:34:32.073Z,20.28
2023-08-17T22:41:51.907Z,20.14
2023-08-17T22:49:10.647Z,20.01
2023-08-17T22:56:28.817Z,20.05
2023-08-17T23:03:48.310Z,20.06
2023-08-17T23:11:06.674Z,19.87
2023-08-17T23:18:24.838Z,19.65
2023-08-17T23:25:45.716Z,19.41
2023-08-17T23:33:04.215Z,19.21
2023-08-17T23:40:22.438Z,19.25
2023-08-17T23:47:42.198Z,19.35
2023-08-17T23:55:00.429Z,19.40
